createdAt,value
2023-04-18T00:01:17.789Z,7.98
2023-04-18T00:03:47.500Z,8.00
2023-04-18T00:06:15.431Z,7.92
2023-04-18T00:08:43.519Z,8.02
2023-04-18T00:11:11.344Z,8.01
2023-04-18T00:13:41.609Z,7.98
2023-04-18T00:16:10.052Z,7.97
2023-04-18T00:18:37.797Z,7.95
2023-04-18T00:21:05.873Z,7.91
2023-04-18T00:23:34.200Z,7.87
2023-04-18T00:26:02.235Z,7.85
2023-04-18T00:28:29.974Z,7.81
2023-04-18T00:30:59.216Z,7.79
2023-04-18T00:33:27.017Z,7.68
2023-04-18T00:35:55.155Z,7.83
2023-04-18T00:38:22.966Z,7.82
2023-04-18T00:40:50.889Z,7.83
2023-04-18T00:43:18.704Z,7.78
2023-04-18T00:45:46.442Z,7.73
2023-04-18T00:48:15.927Z,7.78
2023-04-18T00:50:43.915Z,7.66
2023-04-18T00:53:12.275Z,7.56
2023-04-18T00:55:40.679Z,7.72
2023-04-18T00:58:08.472Z,7.66
2023-04-18T01:00:36.857Z,7.59
2023-04-18T01:03:04.880Z,7.49
2023-04-18T01:05:35.161Z,7.54
2023-04-18T01:08:03.716Z,7.43
2023-04-18T01:10:32.119Z,7.44
2023-04-18T01:13:11.796Z,7.41
2023-04-18T01:15:41.710Z,7.40
2023-04-18T01:18:10.059Z,7.38
2023-04-18T01:20:42.680Z,7.35
2023-04-18T01:23:11.468Z,7.35
2023-04-18T01:25:41.109Z,7.36
2023-04-18T01:28:08.954Z,7.26
2023-04-18T01:30:38.089Z,7.27
2023-04-18T01:33:07.087Z,7.16
2023-04-18T01:35:35.039Z,7.14
2023-04-18T01:38:02.865Z,7.23
2023-04-18T01:40:30.951Z,7.13
2023-04-18T01:43:00.709Z,7.11
2023-04-18T01:45:28.550Z,7.02
2023-04-18T01:47:57.672Z,6.98
2023-04-18T01:50:25.829Z,6.90
2023-04-18T01:52:53.689Z,6.97
2023-04-18T01:55:21.762Z,6.89
2023-04-18T01:57:50.855Z,6.87
2023-04-18T02:00:21.400Z,6.78
2023-04-18T02:02:50.709Z,6.71
2023-04-18T02:05:18.727Z,6.75
2023-04-18T02:07:47.738Z,6.68
2023-04-18T02:10:15.519Z,6.58
2023-04-18T02:12:43.349Z,6.53
2023-04-18T02:15:12.141Z,6.58
2023-04-18T02:17:41.607Z,6.54
2023-04-18T02:20:10.994Z,6.46
2023-04-18T02:22:39.568Z,6.47
2023-04-18T02:25:08.523Z,6.47
2023-04-18T02:27:36.496Z,6.42
2023-04-18T02:30:04.467Z,6.39
2023-04-18T02:32:32.341Z,6.37
2023-04-18T02:35:01.832Z,6.21
2023-04-18T02:37:29.670Z,6.21
2023-04-18T02:39:57.645Z,6.18
2023-04-18T02:42:25.488Z,6.14
2023-04-18T02:44:53.455Z,6.16
2023-04-18T02:47:21.636Z,6.08
2023-04-18T02:49:49.423Z,6.07
2023-04-18T02:52:18.712Z,6.04
2023-04-18T02:54:46.550Z,6.02
2023-04-18T02:57:14.629Z,5.98
2023-04-18T02:59:42.432Z,5.92
2023-04-18T03:02:10.473Z,5.97
2023-04-18T03:04:38.386Z,5.91
2023-04-18T03:07:06.157Z,5.84
2023-04-18T03:09:35.960Z,5.77
2023-04-18T03:12:03.727Z,5.85
2023-04-18T03:14:31.540Z,5.90
2023-04-18T03:16:59.397Z,5.84
2023-04-18T03:19:27.162Z,5.76
2023-04-18T03:21:55.015Z,5.79
2023-04-18T03:24:22.891Z,5.77
2023-04-18T03:26:52.096Z,5.70
2023-04-18T03:29:19.898Z,5.72
2023-04-18T03:31:47.785Z,5.70
2023-04-18T03:34:15.739Z,5.67
2023-04-18T03:36:47.274Z,5.58
2023-04-18T03:39:15.978Z,5.60
2023-04-18T03:41:43.799Z,5.63
2023-04-18T03:44:13.319Z,5.69
2023-04-18T03:46:41.620Z,5.69
2023-04-18T03:49:09.754Z,5.68
2023-04-18T03:51:44.084Z,5.72
2023-04-18T03:54:11.952Z,5.69
2023-04-18T03:56:40.013Z,5.67
2023-04-18T03:59:07.868Z,5.66
2023-04-18T04:01:37.352Z,5.68
2023-04-18T04:04:05.770Z,5.54
2023-04-18T04:06:33.547Z,5.67
2023-04-18T04:09:01.446Z,5.68
2023-04-18T04:11:29.484Z,5.66
2023-04-18T04:13:57.537Z,5.58
2023-04-18T04:16:25.487Z,5.60
2023-04-18T04:18:54.596Z,5.53
2023-04-18T04:21:22.341Z,5.55
2023-04-18T04:23:50.215Z,5.49
2023-04-18T04:26:18.002Z,5.52
2023-04-18T04:28:47.452Z,5.51
2023-04-18T04:31:16.415Z,5.49
2023-04-18T04:33:44.945Z,5.49
2023-04-18T04:36:16.158Z,5.47
2023-04-18T04:38:45.619Z,5.50
2023-04-18T04:41:13.609Z,5.44
2023-04-18T04:43:42.833Z,5.35
2023-04-18T04:46:13.586Z,5.36
2023-04-18T04:48:42.347Z,5.34
2023-04-18T04:51:10.150Z,5.33
2023-04-18T04:53:39.347Z,5.28
2023-04-18T04:56:10.598Z,5.28
2023-04-18T04:58:38.518Z,5.29
2023-04-18T05:01:07.655Z,5.26
2023-04-18T05:03:36.502Z,5.19
2023-04-18T05:06:04.541Z,5.27
2023-04-18T05:08:32.444Z,5.13
2023-04-18T05:11:02.645Z,5.14
2023-04-18T05:13:30.465Z,5.20
2023-04-18T05:16:01.378Z,5.14
2023-04-18T05:18:29.156Z,5.14
2023-04-18T05:20:57.171Z,5.27
2023-04-18T05:23:25.262Z,5.20
2023-04-18T05:25:53.789Z,5.43
2023-04-18T05:28:24.789Z,5.42
2023-04-18T05:30:52.767Z,5.42
2023-04-18T05:33:20.580Z,5.46
2023-04-18T05:35:48.492Z,5.46
2023-04-18T05:38:16.215Z,5.45
2023-04-18T05:44:04.265Z,5.60
2023-04-18T05:46:33.291Z,5.65
2023-04-18T05:49:01.300Z,5.65
2023-04-18T05:51:33.672Z,5.68
2023-04-18T05:54:01.580Z,5.74
2023-04-18T05:56:42.175Z,5.77
2023-04-18T05:59:11.493Z,5.86
2023-04-18T06:01:39.306Z,5.89
2023-04-18T06:04:08.585Z,5.84
2023-04-18T06:06:36.821Z,5.84
2023-04-18T06:09:04.891Z,5.89
2023-04-18T06:11:33.587Z,5.84
2023-04-18T06:14:01.738Z,5.84
2023-04-18T06:16:51.947Z,5.88
2023-04-18T06:19:19.842Z,5.90
2023-04-18T06:21:48.062Z,5.93
2023-04-18T06:24:18.531Z,5.95
2023-04-18T06:26:46.530Z,5.93
2023-04-18T06:29:14.299Z,5.97
2023-04-18T06:31:45.524Z,5.95
2023-04-18T06:34:17.793Z,6.04
2023-04-18T06:36:45.899Z,5.96
2023-04-18T06:39:13.643Z,5.98
2023-04-18T06:41:41.875Z,6.04
2023-04-18T06:44:09.873Z,6.20
2023-04-18T06:46:37.606Z,6.28
2023-04-18T06:49:05.707Z,6.30
2023-04-18T06:51:35.420Z,6.45
2023-04-18T06:54:03.430Z,6.46
2023-04-18T06:56:31.643Z,6.48
2023-04-18T06:58:59.643Z,6.42
2023-04-18T07:01:28.144Z,6.44
2023-04-18T07:03:56.595Z,6.55
2023-04-18T07:06:24.503Z,6.67
2023-04-18T07:09:08.840Z,6.62
2023-04-18T07:11:36.928Z,6.76
2023-04-18T07:14:04.922Z,6.81
2023-04-18T07:16:32.975Z,6.86
2023-04-18T07:19:01.442Z,6.94
2023-04-18T07:21:29.366Z,6.84
2023-04-18T07:23:57.533Z,7.08
2023-04-18T07:26:27.664Z,7.04
2023-04-18T07:28:55.706Z,7.02
2023-04-18T07:31:26.009Z,7.13
2023-04-18T07:33:54.187Z,7.21
2023-04-18T07:36:22.744Z,7.30
2023-04-18T07:38:51.826Z,7.33
2023-04-18T07:41:29.787Z,7.32
2023-04-18T07:43:57.816Z,7.27
2023-04-18T07:46:25.774Z,7.32
2023-04-18T07:48:54.157Z,7.32
2023-04-18T07:51:25.858Z,7.35
2023-04-18T07:53:53.984Z,7.43
2023-04-18T07:56:22.062Z,7.47
2023-04-18T07:58:51.583Z,7.51
2023-04-18T08:01:21.091Z,7.31
2023-04-18T08:03:49.322Z,7.37
2023-04-18T08:06:17.798Z,7.47
2023-04-18T08:08:45.730Z,7.59
2023-04-18T08:11:13.730Z,7.64
2023-04-18T08:13:42.731Z,7.65
2023-04-18T08:16:12.864Z,7.72
2023-04-18T08:18:42.191Z,7.77
2023-04-18T08:21:10.423Z,7.81
2023-04-18T08:23:38.592Z,7.80
2023-04-18T08:26:06.852Z,7.81
2023-04-18T08:28:34.799Z,7.84
2023-04-18T08:31:03.028Z,7.91
2023-04-18T08:33:32.405Z,7.87
2023-04-18T08:36:01.036Z,8.02
2023-04-18T08:38:29.339Z,8.06
2023-04-18T08:40:57.551Z,8.07
2023-04-18T08:43:25.647Z,8.19
2023-04-18T08:46:00.920Z,8.32
2023-04-18T08:48:29.343Z,8.44
2023-04-18T08:51:26.175Z,8.52
2023-04-18T08:53:54.473Z,8.57
2023-04-18T08:56:26.107Z,8.73
2023-04-18T08:58:54.489Z,8.65
2023-04-18T09:01:23.133Z,8.58
2023-04-18T09:03:51.951Z,8.55
2023-04-18T09:06:20.367Z,8.63
2023-04-18T09:08:59.716Z,8.67
2023-04-18T09:11:29.936Z,8.73
2023-04-18T09:13:59.116Z,8.95
2023-04-18T09:16:29.440Z,8.94
2023-04-18T09:19:12.330Z,9.13
2023-04-18T09:21:42.255Z,9.14
2023-04-18T09:24:21.231Z,9.35
2023-04-18T09:26:51.431Z,9.38
2023-04-18T09:29:22.661Z,9.36
2023-04-18T09:32:00.048Z,9.40
2023-04-18T09:34:28.729Z,9.38
2023-04-18T09:37:11.328Z,9.36
2023-04-18T09:39:43.501Z,9.25
2023-04-18T09:42:12.112Z,9.38
2023-04-18T09:44:40.230Z,9.30
2023-04-18T09:47:09.161Z,9.47
2023-04-18T09:49:37.438Z,9.54
2023-04-18T09:52:08.060Z,9.62
2023-04-18T09:54:39.645Z,9.74
2023-04-18T09:57:13.769Z,9.85
2023-04-18T09:59:47.938Z,9.89
2023-04-18T10:02:20.953Z,10.02
2023-04-18T10:04:51.622Z,10.04
2023-04-18T10:07:20.003Z,10.04
2023-04-18T10:09:48.738Z,10.08
2023-04-18T10:12:19.083Z,10.19
2023-04-18T10:14:47.351Z,10.21
2023-04-18T10:17:16.012Z,10.31
2023-04-18T10:19:46.261Z,10.32
2023-04-18T10:22:14.486Z,10.65
2023-04-18T10:24:54.306Z,10.70
2023-04-18T10:27:58.451Z,10.64
2023-04-18T10:30:56.504Z,10.60
2023-04-18T10:33:33.604Z,10.67
2023-04-18T10:36:05.065Z,10.77
2023-04-18T10:38:33.882Z,10.81
2023-04-18T10:41:19.569Z,10.78
2023-04-18T10:44:15.242Z,10.84
2023-04-18T10:46:45.055Z,10.82
2023-04-18T10:49:19.697Z,10.70
2023-04-18T10:51:48.452Z,10.54
2023-04-18T10:54:23.799Z,10.49
2023-04-18T10:56:55.108Z,10.42
2023-04-18T10:59:26.708Z,10.53
2023-04-18T11:01:57.827Z,10.65
2023-04-18T11:04:26.507Z,10.62
2023-04-18T11:06:57.963Z,10.64
2023-04-18T11:09:26.965Z,10.76
2023-04-18T11:12:05.488Z,10.74
2023-04-18T11:14:45.209Z,10.94
2023-04-18T11:17:21.080Z,11.22
2023-04-18T11:19:49.791Z,11.23
2023-04-18T11:22:18.401Z,11.21
2023-04-18T11:24:46.584Z,10.96
2023-04-18T11:27:16.568Z,10.96
2023-04-18T11:29:45.939Z,10.81
2023-04-18T11:32:14.279Z,10.81
2023-04-18T11:34:42.114Z,10.78
2023-04-18T11:37:10.396Z,10.88
2023-04-18T11:39:48.063Z,10.90
2023-04-18T11:42:16.128Z,10.93
2023-04-18T11:44:49.536Z,10.94
2023-04-18T11:47:28.726Z,10.97
2023-04-18T11:49:58.635Z,10.99
2023-04-18T11:52:28.477Z,10.87
2023-04-18T11:54:56.910Z,10.98
2023-04-18T11:57:26.453Z,11.10
2023-04-18T11:59:57.596Z,11.14
2023-04-18T12:02:27.972Z,11.07
2023-04-18T12:04:57.811Z,10.95
2023-04-18T12:07:37.107Z,10.87
2023-04-18T12:10:06.597Z,11.07
2023-04-18T12:12:34.816Z,11.22
2023-04-18T12:15:06.576Z,11.28
2023-04-18T12:17:34.639Z,11.45
2023-04-18T12:20:04.755Z,11.49
2023-04-18T12:22:40.179Z,11.49
2023-04-18T12:25:20.472Z,11.60
2023-04-18T12:27:49.679Z,11.65
2023-04-18T12:30:22.189Z,11.75
2023-04-18T12:32:51.623Z,11.66
2023-04-18T12:35:20.990Z,11.53
2023-04-18T12:37:49.775Z,11.37
2023-04-18T12:40:19.066Z,11.46
2023-04-18T12:42:47.950Z,11.47
2023-04-18T12:45:18.170Z,11.49
2023-04-18T12:47:49.247Z,11.51
2023-04-18T12:50:19.719Z,11.47
2023-04-18T12:52:47.602Z,11.56
2023-04-18T12:55:16.155Z,11.64
2023-04-18T12:57:44.619Z,11.71
2023-04-18T13:00:14.141Z,11.72
2023-04-18T13:02:46.034Z,11.75
2023-04-18T13:05:16.635Z,11.79
2023-04-18T13:07:47.350Z,11.80
2023-04-18T13:10:17.594Z,11.65
2023-04-18T13:12:46.520Z,11.69
2023-04-18T13:15:15.845Z,11.75
2023-04-18T13:17:45.976Z,11.76
2023-04-18T13:20:14.175Z,11.82
2023-04-18T13:22:43.415Z,11.75
2023-04-18T13:25:11.986Z,11.71
2023-04-18T13:27:41.913Z,11.69
2023-04-18T13:30:12.235Z,11.65
2023-04-18T13:32:40.526Z,11.72
2023-04-18T13:35:11.311Z,11.81
2023-04-18T13:37:39.639Z,11.84
2023-04-18T13:40:09.433Z,11.84
2023-04-18T13:42:38.448Z,11.75
2023-04-18T13:45:07.533Z,11.95
2023-04-18T13:47:35.903Z,12.09
2023-04-18T13:50:04.144Z,12.13
2023-04-18T13:52:33.725Z,12.17
2023-04-18T13:55:05.963Z,12.07
2023-04-18T13:57:37.359Z,12.04
2023-04-18T14:00:09.215Z,12.24
2023-04-18T14:02:37.201Z,12.45
2023-04-18T14:05:05.543Z,12.41
2023-04-18T14:07:37.638Z,12.37
2023-04-18T14:10:06.243Z,12.53
2023-04-18T14:12:34.142Z,12.67
2023-04-18T14:15:01.918Z,12.85
2023-04-18T14:17:31.087Z,12.91
2023-04-18T14:19:59.013Z,12.85
2023-04-18T14:22:26.946Z,12.90
2023-04-18T14:24:56.500Z,12.84
2023-04-18T14:27:26.248Z,12.92
2023-04-18T14:29:57.193Z,12.97
2023-04-18T14:32:25.082Z,13.00
2023-04-18T14:34:53.526Z,12.97
2023-04-18T14:37:21.304Z,12.93
2023-04-18T14:39:49.332Z,13.05
2023-04-18T14:42:18.972Z,13.24
2023-04-18T14:44:46.827Z,13.27
2023-04-18T14:47:14.569Z,13.32
2023-04-18T14:49:42.343Z,13.46
2023-04-18T14:52:10.261Z,13.33
2023-04-18T14:54:38.171Z,13.19
2023-04-18T14:57:08.199Z,13.06
2023-04-18T14:59:38.694Z,13.01
2023-04-18T15:02:06.610Z,12.87
2023-04-18T15:04:34.668Z,12.76
2023-04-18T15:07:02.683Z,12.90
2023-04-18T15:09:30.821Z,12.89
2023-04-18T15:12:00.277Z,12.76
2023-04-18T15:14:28.922Z,12.74
2023-04-18T15:16:59.157Z,12.73
2023-04-18T15:19:28.875Z,12.82
2023-04-18T15:21:56.870Z,12.73
2023-04-18T15:24:24.910Z,12.91
2023-04-18T15:26:52.889Z,13.06
2023-04-18T15:29:20.808Z,13.09
2023-04-18T15:31:48.656Z,12.96
2023-04-18T15:34:18.218Z,12.94
2023-04-18T15:36:48.683Z,12.86
2023-04-18T15:39:18.101Z,12.78
2023-04-18T15:41:47.233Z,12.88
2023-04-18T15:44:15.166Z,12.93
2023-04-18T15:46:43.004Z,12.87
2023-04-18T15:49:10.841Z,12.82
2023-04-18T15:51:40.365Z,12.79
2023-04-18T15:54:08.130Z,12.85
2023-04-18T15:57:31.487Z,12.73
2023-04-18T15:59:59.793Z,12.76
2023-04-18T16:02:28.137Z,12.80
2023-04-18T16:04:56.082Z,12.91
2023-04-18T16:07:25.597Z,12.96
2023-04-18T16:09:53.454Z,12.99
2023-04-18T16:12:21.268Z,12.93
2023-04-18T16:14:49.081Z,12.98
2023-04-18T16:17:16.856Z,13.02
2023-04-18T16:19:44.623Z,13.10
2023-04-18T16:22:12.483Z,13.11
2023-04-18T16:24:42.261Z,13.17
2023-04-18T16:27:10.136Z,13.17
2023-04-18T16:29:38.018Z,13.13
2023-04-18T16:32:10.264Z,13.13
2023-04-18T16:34:43.854Z,13.03
2023-04-18T16:37:11.645Z,12.99
2023-04-18T16:39:39.464Z,12.99
2023-04-18T16:42:08.759Z,13.00
2023-04-18T16:44:36.659Z,13.05
2023-04-18T16:47:05.138Z,12.94
2023-04-18T16:49:33.072Z,12.95
2023-04-18T16:52:01.583Z,12.99
2023-04-18T16:54:29.498Z,12.96
2023-04-18T16:56:59.953Z,13.02
2023-04-18T16:59:29.079Z,13.09
2023-04-18T17:01:57.004Z,13.21
2023-04-18T17:04:26.928Z,13.21
2023-04-18T17:06:54.920Z,13.20
2023-04-18T17:09:25.748Z,13.16
2023-04-18T17:11:57.943Z,13.14
2023-04-18T17:14:30.188Z,13.11
2023-04-18T17:16:58.109Z,13.11
2023-04-18T17:19:28.365Z,13.04
2023-04-18T17:21:56.520Z,12.97
2023-04-18T17:24:24.459Z,12.97
2023-04-18T17:26:52.368Z,12.83
2023-04-18T17:29:22.657Z,12.85
2023-04-18T17:31:52.697Z,12.86
2023-04-18T17:34:20.513Z,12.90
2023-04-18T17:36:48.360Z,12.84
2023-04-18T17:39:16.962Z,12.81
2023-04-18T17:41:46.278Z,12.82
2023-04-18T17:44:16.022Z,12.82
2023-04-18T17:46:43.813Z,12.75
2023-04-18T17:49:38.512Z,12.64
2023-04-18T17:52:09.529Z,12.59
2023-04-18T17:54:42.871Z,12.73
2023-04-18T17:57:11.051Z,12.58
2023-04-18T17:59:38.892Z,12.75
2023-04-18T18:02:06.786Z,12.72
2023-04-18T18:04:36.160Z,12.74
2023-04-18T18:07:07.312Z,12.76
2023-04-18T18:09:35.440Z,12.66
2023-04-18T18:12:03.600Z,12.70
2023-04-18T18:14:31.365Z,12.64
2023-04-18T18:16:59.189Z,12.55
2023-04-18T18:19:27.189Z,12.54
2023-04-18T18:21:56.448Z,12.50
2023-04-18T18:24:25.334Z,12.49
2023-04-18T18:26:53.163Z,12.50
2023-04-18T18:29:21.155Z,12.42
2023-04-18T18:31:49.087Z,12.37
2023-04-18T18:34:17.039Z,12.34
2023-04-18T18:36:44.853Z,12.31
2023-04-18T18:39:14.629Z,12.31
2023-04-18T18:41:42.654Z,12.31
2023-04-18T18:44:14.456Z,12.21
2023-04-18T18:46:43.231Z,12.18
2023-04-18T18:49:11.268Z,12.16
2023-04-18T18:51:39.052Z,12.10
2023-04-18T18:54:11.333Z,12.02
2023-04-18T18:56:42.094Z,11.97
2023-04-18T18:59:09.806Z,11.99
2023-04-18T19:01:37.716Z,11.99
2023-04-18T19:04:06.294Z,11.91
2023-04-18T19:06:34.399Z,11.93
2023-04-18T19:09:07.843Z,11.91
2023-04-18T19:11:35.846Z,11.87
2023-04-18T19:14:05.098Z,11.78
2023-04-18T19:16:34.148Z,11.77
2023-04-18T19:19:01.991Z,11.78
2023-04-18T19:21:30.071Z,11.74
2023-04-18T19:23:58.027Z,11.69
2023-04-18T19:26:25.833Z,11.76
2023-04-18T19:28:54.568Z,11.76
2023-04-18T19:31:32.311Z,11.76
2023-04-18T19:34:03.158Z,11.70
2023-04-18T19:36:30.950Z,11.66
2023-04-18T19:38:59.015Z,11.60
2023-04-18T19:41:27.093Z,11.53
2023-04-18T19:43:56.680Z,11.29
2023-04-18T19:46:26.239Z,11.48
2023-04-18T19:48:54.154Z,11.43
2023-04-18T19:51:22.126Z,11.40
2023-04-18T19:53:50.079Z,11.38
2023-04-18T19:56:17.828Z,11.35
2023-04-18T19:58:49.090Z,11.23
2023-04-18T20:01:18.799Z,11.19
2023-04-18T20:03:48.928Z,11.23
2023-04-18T20:06:17.975Z,11.16
2023-04-18T20:08:46.263Z,11.11
2023-04-18T20:11:14.937Z,10.86
2023-04-18T20:13:42.922Z,11.04
2023-04-18T20:16:11.305Z,10.99
2023-04-18T20:18:41.918Z,10.93
2023-04-18T20:21:11.847Z,10.85
2023-04-18T20:23:41.723Z,10.78
2023-04-18T20:26:10.186Z,10.71
2023-04-18T20:28:38.800Z,10.68
2023-04-18T20:31:10.024Z,10.55
2023-04-18T20:33:38.196Z,10.59
2023-04-18T20:36:06.547Z,10.53
2023-04-18T20:38:38.211Z,10.44
2023-04-18T20:41:08.140Z,10.38
2023-04-18T20:43:37.213Z,10.32
2023-04-18T20:46:05.140Z,10.32
2023-04-18T20:48:32.942Z,10.27
2023-04-18T20:51:00.772Z,10.22
2023-04-18T20:53:29.180Z,10.19
2023-04-18T20:55:58.613Z,10.18
2023-04-18T20:58:26.522Z,10.05
2023-04-18T21:00:54.369Z,10.12
2023-04-18T21:03:22.354Z,10.21
2023-04-18T21:05:50.524Z,10.23
2023-04-18T21:08:18.299Z,10.24
2023-04-18T21:10:46.038Z,10.20
2023-04-18T21:13:15.218Z,10.19
2023-04-18T21:15:43.217Z,10.15
2023-04-18T21:18:11.093Z,10.14
2023-04-18T21:20:38.862Z,10.11
2023-04-18T21:23:06.638Z,10.03
2023-04-18T21:25:34.446Z,10.01
2023-04-18T21:28:02.401Z,10.05
2023-04-18T21:30:31.563Z,10.03
2023-04-18T21:33:17.281Z,9.87
2023-04-18T21:35:48.353Z,9.76
2023-04-18T21:38:29.617Z,9.71
2023-04-18T21:40:57.641Z,9.51
2023-04-18T21:43:28.189Z,9.75
2023-04-18T21:46:01.448Z,9.73
2023-04-18T21:48:40.268Z,9.57
2023-04-18T21:51:08.450Z,9.70
2023-04-18T21:53:36.338Z,9.64
2023-04-18T21:56:04.208Z,9.56
2023-04-18T21:58:32.208Z,9.64
2023-04-18T22:01:01.533Z,9.57
2023-04-18T22:03:29.964Z,9.54
2023-04-18T22:05:58.275Z,9.55
2023-04-18T22:08:26.636Z,9.51
2023-04-18T22:10:56.099Z,9.46
2023-04-18T22:13:24.194Z,9.44
2023-04-18T22:15:52.502Z,9.42
2023-04-18T22:18:21.909Z,9.52
2023-04-18T22:20:49.777Z,9.43
2023-04-18T22:23:19.556Z,9.40
2023-04-18T22:25:47.427Z,9.35
2023-04-18T22:28:15.430Z,9.33
2023-04-18T22:30:43.265Z,9.23
2023-04-18T22:33:11.144Z,9.23
2023-04-18T22:35:40.332Z,9.17
2023-04-18T22:38:08.168Z,9.25
2023-04-18T22:40:36.085Z,9.17
2023-04-18T22:43:03.813Z,9.08
2023-04-18T22:45:31.646Z,8.98
2023-04-18T22:47:59.386Z,9.06
2023-04-18T22:50:27.403Z,9.06
2023-04-18T22:52:57.318Z,9.02
2023-04-18T22:55:25.179Z,8.96
2023-04-18T22:57:52.929Z,8.96
2023-04-18T23:00:20.999Z,8.99
2023-04-18T23:02:48.979Z,8.92
2023-04-18T23:05:16.982Z,8.85
2023-04-18T23:07:44.719Z,8.91
2023-04-18T23:10:13.972Z,8.96
2023-04-18T23:12:41.759Z,8.88
2023-04-18T23:15:10.553Z,8.78
2023-04-18T23:17:38.486Z,8.78
2023-04-18T23:20:07.744Z,8.77
2023-04-18T23:22:35.588Z,8.80
2023-04-18T23:25:03.392Z,8.81
2023-04-18T23:27:32.794Z,8.88
2023-04-18T23:30:01.271Z,8.89
2023-04-18T23:32:29.143Z,8.87
2023-04-18T23:34:56.895Z,8.83
2023-04-18T23:37:24.649Z,8.83
2023-04-18T23:39:52.373Z,8.70
2023-04-18T23:42:20.203Z,8.69
2023-04-18T23:44:49.516Z,8.75
2023-04-18T23:47:17.480Z,8.73
2023-04-18T23:49:45.665Z,8.71
2023-04-18T23:52:13.407Z,8.78
2023-04-18T23:54:41.231Z,8.76
2023-04-18T23:57:08.985Z,8.80
2023-04-18T23:59:36.799Z,8.69
